Cross Junction, VA (22625)

10:01 PM EDT on September 03, 2015 (GMT -0400)
Walnut Springs | | Change Station
CLOSE
Current Station
Personal Weather Station
Location: Gore, VA
Elevation: 906 ft
Nearby Weather Stations

Elev 906 ft 39.27 °N, 78.30 °W | Updated 10 seconds ago

Partly Cloudy
Partly Cloudy
77.1 °F
Feels Like 79 °F
N
2.0
Wind Variable Wind from WSW
Gusts 3.0 mph

Today
High -- | Low -- °F
--% Chance of Precip.
Yesterday
High -- | Low -- °F
Precip. -- in
6:43 AM 7:41 PM
Waning Gibbous, 64% visible
Pressure 29.92 in
Visibility 9.0 miles
Clouds Clear
Heat Index 79 °F
Dew Point 71 °F
Humidity 82%
Rainfall 0.00 in
Snow Depth Not available.
UV 0 out of 12
Pollen 9.80 out of 12
Air Quality Not available.
Flu Activity Not available.
METAR KMRB 040153Z 00000KT 9SM CLR 24/19 A2993 RMK AO2 SLP131 T02390189
Pressure 29.92 in
Visibility 9.0 miles
Clouds Clear
Heat Index 79 °F
Dew Point 71 °F
Humidity 82%
Rainfall 0.00 in
Snow Depth Not available.
UV 0 out of 12
Pollen 9.80 out of 12
Air Quality Not available.
Flu Activity Not available.
METAR KMRB 040153Z 00000KT 9SM CLR 24/19 A2993 RMK AO2 SLP131 T02390189

10-Day Weather Forecast

×

Almanac

Astronomy

Sep. 03, 2015 Rise Set
Actual Time
Civil Twilight
Nautical Twilight
Astronomical Twilight
Moon
Length of Visible Light
Length of Day
Tomorrow will be .
, % of the Moon is Illuminated

Today's Extremes

State Highs State Lows

Community

WunderPhotos

Upload Photos

1,852,095 photos uploaded!

WunderBlogs® & News

Nearby

Air Quality

  Air Quality AQ Index Pollutant
Not available.

Snow Depth

Station Depth Elevation

Earthquake Activity

City Distance Mag. Time & Date
Minimum magnitude displayed is 2.5.

Coastal Water Temperatures

Place Temperature

Stations

Nearby Weather Stations

Station Location Temp. Windchill Dew Point Humidity Wind Precip. Elev Updated Type